Time;durP1;ratioP1;P1;durP2;ratioP2;P2;SDS_P1;SDS_P2;PMS_P1;PMS_P2;Temp;Humidity;BMP_temperature;BMP_pressure;BME280_temperature;BME280_humidity;BME280_pressure;Samples;Min_cycle;Max_cycle;Signal;HPM_P1;HPM_P2
2022/07/06 00:00:06;;;;;;;1999.90;999.90;;;17.80;99.80;;;;;;5063489;28;20039;-72
2022/07/06 00:02:32;;;;;;;1999.90;999.90;;;17.80;99.90;;;;;;5079071;28;20028;-72
2022/07/06 00:04:57;;;;;;;1999.90;999.90;;;17.80;99.90;;;;;;5078988;28;20044;-72
2022/07/06 00:07:23;;;;;;;1999.90;999.90;;;17.70;99.90;;;;;;5078699;28;20103;-71
2022/07/06 00:09:49;;;;;;;1999.90;999.90;;;17.70;99.90;;;;;;5077926;28;20035;-71
2022/07/06 00:12:15;;;;;;;1999.90;999.90;;;17.60;99.90;;;;;;5078594;28;20115;-70
2022/07/06 00:14:41;;;;;;;1999.90;999.90;;;17.60;99.90;;;;;;5079017;28;20021;-71
2022/07/06 00:17:06;;;;;;;1999.90;999.90;;;17.50;99.90;;;;;;5078666;28;20028;-72
2022/07/06 00:19:32;;;;;;;1999.90;999.90;;;17.50;99.90;;;;;;5078852;28;20024;-72
2022/07/06 00:21:58;;;;;;;1999.90;999.90;;;17.40;99.90;;;;;;5070559;28;20025;-72
2022/07/06 00:24:23;;;;;;;1999.90;999.90;;;17.40;99.90;;;;;;5051050;28;20017;-71
2022/07/06 00:26:49;;;;;;;1999.90;999.90;;;17.40;99.90;;;;;;5078708;28;20064;-72
2022/07/06 00:29:14;;;;;;;1999.90;999.90;;;17.40;99.90;;;;;;5078861;28;20391;-72
2022/07/06 00:31:40;;;;;;;1999.90;999.90;;;17.40;99.90;;;;;;5078870;28;20028;-72
2022/07/06 00:34:06;;;;;;;1999.90;999.90;;;17.30;99.90;;;;;;5078510;28;20024;-72
2022/07/06 00:36:31;;;;;;;1999.90;999.90;;;17.30;99.90;;;;;;5078831;28;20487;-70
2022/07/06 00:38:57;;;;;;;1999.90;999.90;;;17.30;99.90;;;;;;5078405;28;20537;-70
2022/07/06 00:41:23;;;;;;;1999.90;999.90;;;17.30;99.90;;;;;;5078634;28;20056;-72
2022/07/06 00:43:56;;;;;;;1999.90;999.90;;;17.30;99.90;;;;;;5067819;28;20056;-70
2022/07/06 00:46:32;;;;;;;1999.90;999.90;;;17.30;99.90;;;;;;5058319;28;20487;-72
2022/07/06 00:48:58;;;;;;;1999.90;999.90;;;17.20;99.90;;;;;;5069903;28;20024;-72
2022/07/06 00:51:31;;;;;;;1999.90;999.90;;;17.20;99.90;;;;;;5075419;28;20032;-70
2022/07/06 00:54:00;;;;;;;1999.90;999.90;;;17.20;99.90;;;;;;5075077;28;20517;-72
2022/07/06 00:56:26;;;;;;;1999.90;999.90;;;17.10;99.90;;;;;;5075632;28;20116;-72
2022/07/06 00:58:52;;;;;;;1999.90;999.90;;;17.10;99.90;;;;;;5075342;28;20392;-72
2022/07/06 01:01:18;;;;;;;1999.90;999.90;;;17.10;99.90;;;;;;5068917;28;20055;-72
2022/07/06 01:03:43;;;;;;;1999.90;999.90;;;17.00;99.90;;;;;;5075118;28;20028;-72
2022/07/06 01:06:10;;;;;;;1999.90;999.90;;;17.00;99.90;;;;;;5075292;28;20032;-72
2022/07/06 01:08:37;;;;;;;1999.90;999.90;;;17.00;99.90;;;;;;5075000;28;20031;-72
2022/07/06 01:11:03;;;;;;;1999.90;999.90;;;16.90;99.90;;;;;;5074882;28;20028;-72
2022/07/06 01:13:32;;;;;;;1999.90;999.90;;;16.90;99.90;;;;;;5075067;28;20016;-72
2022/07/06 01:15:58;;;;;;;1999.90;999.90;;;16.90;99.90;;;;;;5074298;28;20056;-70
2022/07/06 01:18:24;;;;;;;1999.90;999.90;;;16.90;99.90;;;;;;5074874;28;20048;-72
2022/07/06 01:20:50;;;;;;;1999.90;999.90;;;16.80;99.90;;;;;;5075141;28;20020;-72
2022/07/06 01:23:16;;;;;;;1999.90;999.90;;;16.80;99.90;;;;;;5056393;28;20032;-72
2022/07/06 01:25:41;;;;;;;1999.90;999.90;;;16.80;99.90;;;;;;5066482;28;20025;-72
2022/07/06 01:28:07;;;;;;;1999.90;999.90;;;16.70;99.90;;;;;;5054481;28;20033;-71
2022/07/06 01:30:33;;;;;;;1999.90;999.90;;;16.70;99.90;;;;;;5054841;28;20044;-70
2022/07/06 01:32:58;;;;;;;1999.90;999.90;;;16.70;99.90;;;;;;5054333;28;20032;-72
2022/07/06 01:35:26;;;;;;;1999.90;999.90;;;16.70;99.90;;;;;;5069333;28;20056;-72
2022/07/06 01:37:51;;;;;;;1999.90;999.90;;;16.60;99.90;;;;;;5073690;28;20470;-72
2022/07/06 01:40:17;;;;;;;1999.90;999.90;;;16.60;99.90;;;;;;5074865;28;20100;-72
2022/07/06 01:42:43;;;;;;;1999.90;999.90;;;16.50;99.90;;;;;;5072686;28;20028;-72
2022/07/06 01:45:09;;;;;;;1999.90;999.90;;;16.50;99.90;;;;;;5054005;28;20500;-70
2022/07/06 01:47:35;;;;;;;1999.90;999.90;;;16.40;99.90;;;;;;5064283;28;20031;-70
2022/07/06 01:50:04;;;;;;;1999.90;999.90;;;16.40;99.90;;;;;;5074398;28;20050;-70
2022/07/06 01:52:30;;;;;;;1999.90;999.90;;;16.40;99.90;;;;;;5057957;28;20021;-70
2022/07/06 01:54:56;;;;;;;1999.90;999.90;;;16.40;99.90;;;;;;5054266;28;20407;-71
2022/07/06 01:57:22;;;;;;;1999.90;999.90;;;16.40;99.90;;;;;;5054345;28;20074;-70
2022/07/06 01:59:48;;;;;;;1999.90;999.90;;;16.40;99.90;;;;;;5055917;28;20539;-72
2022/07/06 02:02:15;;;;;;;1999.90;999.90;;;16.30;99.90;;;;;;5073869;28;20039;-72
2022/07/06 02:04:40;;;;;;;1999.90;999.90;;;16.40;99.90;;;;;;5074191;28;20488;-72
2022/07/06 02:07:06;;;;;;;1999.90;999.90;;;16.30;99.90;;;;;;5073965;28;20025;-70
2022/07/06 02:09:31;;;;;;;1999.90;999.90;;;16.40;99.90;;;;;;5073804;28;20561;-72
2022/07/06 02:11:57;;;;;;;1999.90;999.90;;;16.30;99.90;;;;;;5073851;28;20047;-72
2022/07/06 02:14:23;;;;;;;1999.90;999.90;;;16.30;99.90;;;;;;5073696;28;20111;-72
2022/07/06 02:16:48;;;;;;;1999.90;999.90;;;16.30;99.90;;;;;;5073625;28;20096;-71
2022/07/06 02:19:14;;;;;;;1999.90;999.90;;;16.20;99.90;;;;;;5073681;28;20112;-72
2022/07/06 02:21:39;;;;;;;1999.90;999.90;;;16.20;99.90;;;;;;5067922;28;20481;-72
2022/07/06 02:24:05;;;;;;;1999.90;999.90;;;16.10;99.90;;;;;;5060449;28;20499;-73
2022/07/06 02:26:31;;;;;;;1999.90;999.90;;;16.10;99.90;;;;;;5073684;28;20462;-72
2022/07/06 02:28:57;;;;;;;1999.90;999.90;;;16.00;99.90;;;;;;5073419;28;20028;-72
2022/07/06 02:31:22;;;;;;;1999.90;999.90;;;16.00;99.90;;;;;;5073558;28;20021;-70
2022/07/06 02:33:48;;;;;;;1999.90;999.90;;;16.00;99.90;;;;;;5073310;28;20029;-70
2022/07/06 02:36:13;;;;;;;1999.90;999.90;;;15.90;99.90;;;;;;5073320;28;20078;-70
2022/07/06 02:38:39;;;;;;;1999.90;999.90;;;15.90;99.90;;;;;;5072501;28;20112;-72
2022/07/06 02:41:05;;;;;;;1999.90;999.90;;;15.90;99.90;;;;;;5073599;28;20048;-72
2022/07/06 02:43:30;;;;;;;1999.90;999.90;;;15.90;99.90;;;;;;5064955;28;20090;-72
2022/07/06 02:45:56;;;;;;;1999.90;999.90;;;15.90;99.90;;;;;;5052739;28;20070;-70
2022/07/06 02:48:21;;;;;;;1999.90;999.90;;;15.90;99.90;;;;;;5069821;28;20032;-71
2022/07/06 02:50:47;;;;;;;1999.90;999.90;;;15.80;99.90;;;;;;5071136;28;20032;-72
2022/07/06 02:53:13;;;;;;;1999.90;999.90;;;15.80;99.90;;;;;;5052928;28;20159;-72
2022/07/06 02:55:39;;;;;;;1999.90;999.90;;;15.70;99.90;;;;;;5053094;28;20021;-72
2022/07/06 02:58:04;;;;;;;1999.90;999.90;;;15.70;99.90;;;;;;5052822;28;20104;-72
2022/07/06 03:00:30;;;;;;;1999.90;999.90;;;15.70;99.90;;;;;;5058854;28;20025;-70
2022/07/06 03:02:56;;;;;;;1999.90;999.90;;;15.70;99.90;;;;;;5072407;22;20061;-80
2022/07/06 03:05:21;;;;;;;1999.90;999.90;;;15.60;99.90;;;;;;5035144;28;20435;-78
2022/07/06 03:07:47;;;;;;;1999.90;999.90;;;15.50;99.90;;;;;;5044518;28;20029;-80
2022/07/06 03:10:13;;;;;;;1999.90;999.90;;;15.60;99.90;;;;;;5043487;28;20025;-80
2022/07/06 03:12:38;;;;;;;1999.90;999.90;;;15.50;99.90;;;;;;5044055;28;20427;-80
2022/07/06 03:15:05;;;;;;;1999.90;999.90;;;15.50;99.90;;;;;;5028572;28;20029;-80
2022/07/06 03:17:30;;;;;;;1999.90;999.90;;;15.50;99.90;;;;;;5015019;28;20022;-78
2022/07/06 03:19:56;;;;;;;1999.90;999.90;;;15.40;99.90;;;;;;5046202;28;20040;-80
2022/07/06 03:22:21;;;;;;;1999.90;999.90;;;15.40;99.90;;;;;;5055896;28;20032;-80
2022/07/06 03:24:47;;;;;;;1999.90;999.90;;;15.40;99.90;;;;;;5037994;28;20116;-80
2022/07/06 03:27:12;;;;;;;1999.90;999.90;;;15.30;99.90;;;;;;5052689;28;20411;-78
2022/07/06 03:29:38;;;;;;;1999.90;999.90;;;15.30;99.90;;;;;;5048388;28;20024;-80
2022/07/06 03:32:04;;;;;;;1999.90;999.90;;;15.30;99.90;;;;;;5027595;28;20029;-80
2022/07/06 03:34:29;;;;;;;1999.90;999.90;;;15.30;99.90;;;;;;5025947;28;20029;-78
2022/07/06 03:36:55;;;;;;;1999.90;999.90;;;15.20;99.90;;;;;;5041905;28;20483;-80
2022/07/06 03:39:21;;;;;;;1999.90;999.90;;;15.20;99.90;;;;;;5058698;28;20109;-78
2022/07/06 03:41:47;;;;;;;1999.90;999.90;;;15.20;99.90;;;;;;5035047;28;20048;-78
2022/07/06 03:44:13;;;;;;;1999.90;999.90;;;15.20;99.90;;;;;;5065930;28;20422;-78
2022/07/06 03:46:39;;;;;;;1999.90;999.90;;;15.20;99.90;;;;;;5046848;28;20025;-78
2022/07/06 03:49:04;;;;;;;1999.90;999.90;;;15.20;99.90;;;;;;5034382;28;20499;-79
2022/07/06 03:51:30;;;;;;;1999.90;999.90;;;15.10;99.90;;;;;;5034753;28;20063;-80
2022/07/06 03:53:55;;;;;;;1999.90;999.90;;;15.10;99.90;;;;;;5032007;28;20033;-78
2022/07/06 03:56:32;;;;;;;1999.90;999.90;;;15.10;99.90;;;;;;5048503;28;20195;-81
2022/07/06 03:58:59;;;;;;;1999.90;999.90;;;15.10;99.90;;;;;;5038098;28;20113;-78
2022/07/06 04:01:25;;;;;;;1999.90;999.90;;;15.00;99.90;;;;;;5053538;28;20024;-80
2022/07/06 04:03:51;;;;;;;1999.90;999.90;;;15.00;99.90;;;;;;5034507;28;20067;-80
2022/07/06 04:06:17;;;;;;;1999.90;999.90;;;14.90;99.90;;;;;;5062236;28;20024;-80
2022/07/06 04:08:43;;;;;;;1999.90;999.90;;;14.90;99.90;;;;;;5069152;28;20029;-80
2022/07/06 04:11:09;;;;;;;1999.90;999.90;;;14.80;99.90;;;;;;5044349;28;20074;-80
2022/07/06 04:13:34;;;;;;;1999.90;999.90;;;14.80;99.90;;;;;;5040183;28;20028;-80
2022/07/06 04:16:00;;;;;;;1999.90;999.90;;;14.80;99.90;;;;;;5072567;28;20028;-80
2022/07/06 04:18:26;;;;;;;1999.90;999.90;;;14.80;99.90;;;;;;5037710;28;20035;-77
2022/07/06 04:20:52;;;;;;;1999.90;999.90;;;14.70;99.90;;;;;;5052472;28;20025;-80
2022/07/06 04:23:17;;;;;;;1999.90;999.90;;;14.70;99.90;;;;;;5070556;28;20040;-80
2022/07/06 04:25:43;;;;;;;1999.90;999.90;;;14.70;99.90;;;;;;5037519;28;20033;-80
2022/07/06 04:28:09;;;;;;;1999.90;999.90;;;14.70;99.90;;;;;;5040635;28;20059;-80
2022/07/06 04:30:35;;;;;;;1999.90;999.90;;;14.70;99.90;;;;;;5048605;28;20075;-80
2022/07/06 04:33:01;;;;;;;1999.90;999.90;;;14.70;99.90;;;;;;5055854;28;20029;-80
2022/07/06 04:35:26;;;;;;;1999.90;999.90;;;14.60;99.90;;;;;;5049791;28;20495;-80
2022/07/06 04:37:52;;;;;;;1999.90;999.90;;;14.60;99.90;;;;;;5039283;28;20025;-78
2022/07/06 04:40:18;;;;;;;1999.90;999.90;;;14.60;99.90;;;;;;5038255;28;20028;-80
2022/07/06 04:42:43;;;;;;;1999.90;999.90;;;14.60;99.90;;;;;;5055623;28;20439;-80
2022/07/06 04:45:09;;;;;;;1999.90;999.90;;;14.60;99.90;;;;;;5047575;28;20051;-77
2022/07/06 04:47:35;;;;;;;1999.90;999.90;;;14.60;99.90;;;;;;5055497;28;20023;-80
2022/07/06 04:50:02;;;;;;;1999.90;999.90;;;14.60;99.90;;;;;;5039813;28;20037;-77
2022/07/06 04:52:28;;;;;;;1999.90;999.90;;;14.60;99.90;;;;;;5068709;28;20024;-80
2022/07/06 04:54:56;;;;;;;1999.90;999.90;;;14.60;99.90;;;;;;5054062;28;20040;-80
2022/07/06 04:57:25;;;;;;;1999.90;999.90;;;14.60;99.90;;;;;;5069142;28;20609;-78
2022/07/06 04:59:51;;;;;;;1999.90;999.90;;;14.60;99.90;;;;;;5031702;28;20066;-78
2022/07/06 05:02:17;;;;;;;1999.90;999.90;;;14.60;99.90;;;;;;5054925;28;20045;-81
2022/07/06 05:04:42;;;;;;;1999.90;999.90;;;14.60;99.90;;;;;;5037524;28;20037;-79
2022/07/06 05:07:08;;;;;;;1999.90;999.90;;;14.50;99.90;;;;;;5055302;28;20033;-81
2022/07/06 05:09:33;;;;;;;1999.90;999.90;;;14.50;99.90;;;;;;5037136;28;20515;-81
2022/07/06 05:11:59;;;;;;;1999.90;999.90;;;14.60;99.90;;;;;;5055098;28;20033;-78
2022/07/06 05:14:25;;;;;;;1999.90;999.90;;;14.60;99.90;;;;;;5027594;28;20033;-79
2022/07/06 05:16:50;;;;;;;1999.90;999.90;;;14.70;99.90;;;;;;5064802;28;20214;-82
2022/07/06 05:19:16;;;;;;;1999.90;999.90;;;14.70;99.90;;;;;;5046605;28;20020;-78
2022/07/06 05:21:41;;;;;;;1999.90;999.90;;;14.70;99.90;;;;;;5062865;28;20480;-82
2022/07/06 05:24:07;;;;;;;1999.90;999.90;;;14.80;99.90;;;;;;5054684;28;20017;-79
2022/07/06 05:26:33;;;;;;;1999.90;999.90;;;14.90;99.90;;;;;;5052531;28;20055;-79
2022/07/06 05:28:59;;;;;;;1999.90;999.90;;;14.90;99.90;;;;;;5048225;28;20029;-82
2022/07/06 05:31:25;;;;;;;1999.90;999.90;;;14.90;99.90;;;;;;5023496;28;20056;-82
2022/07/06 05:33:50;;;;;;;1999.90;999.90;;;15.00;99.90;;;;;;5027584;28;20025;-83
2022/07/06 05:36:16;;;;;;;1999.90;999.90;;;15.00;99.90;;;;;;5019659;28;20112;-79
2022/07/06 05:38:42;;;;;;;1999.90;999.90;;;15.00;99.90;;;;;;5057914;28;20021;-80
2022/07/06 05:41:08;;;;;;;1999.90;999.90;;;15.00;99.90;;;;;;5030403;28;20017;-82
2022/07/06 05:43:37;;;;;;;1999.90;999.90;;;15.10;99.90;;;;;;5036215;28;20029;-82
2022/07/06 05:46:03;;;;;;;1999.90;999.90;;;15.10;99.90;;;;;;5069995;28;20066;-83
2022/07/06 05:51:13;;;;;;;1999.90;999.90;;;15.20;99.90;;;;;;5053790;28;20036;-84
2022/07/06 05:53:39;;;;;;;1999.90;999.90;;;15.30;99.90;;;;;;5054085;28;20021;-84
2022/07/06 05:56:05;;;;;;;1999.90;999.90;;;15.30;99.90;;;;;;5059638;28;20391;-82
2022/07/06 05:58:30;;;;;;;1999.90;999.90;;;15.40;99.90;;;;;;5056758;28;20447;-83
2022/07/06 06:00:56;;;;;;;1999.90;999.90;;;15.50;99.90;;;;;;5074109;28;20031;-84
2022/07/06 06:03:22;;;;;;;1999.90;999.90;;;15.50;99.90;;;;;;5073978;28;20053;-80
2022/07/06 06:05:47;;;;;;;1999.90;999.90;;;15.60;99.90;;;;;;5051483;28;20465;-83
2022/07/06 06:08:13;;;;;;;1999.90;999.90;;;15.60;99.90;;;;;;5032566;28;20670;-83
2022/07/06 06:10:39;;;;;;;1999.90;999.90;;;15.80;99.90;;;;;;5038318;28;20488;-83
2022/07/06 06:13:04;;;;;;;1999.90;999.90;;;15.80;99.90;;;;;;5016212;28;20022;-83
2022/07/06 06:15:30;;;;;;;1999.90;999.90;;;15.80;99.90;;;;;;5023316;28;20025;-83
2022/07/06 06:17:56;;;;;;;1999.90;999.90;;;16.00;99.90;;;;;;5015969;28;20068;-83
2022/07/06 06:20:21;;;;;;;1999.90;999.90;;;16.00;99.90;;;;;;5033130;28;20395;-83
2022/07/06 06:22:55;;;;;;;1999.90;999.90;;;16.10;99.90;;;;;;5053443;28;20025;-83
2022/07/06 06:25:41;;;;;;;1999.90;999.90;;;16.20;99.90;;;;;;5034037;28;20033;-82
2022/07/06 06:28:08;;;;;;;1999.90;999.90;;;16.30;99.90;;;;;;5032797;28;20037;-81
2022/07/06 06:30:35;;;;;;;1999.90;999.90;;;16.40;99.90;;;;;;5047931;28;20032;-84
2022/07/06 06:33:12;;;;;;;1999.90;999.90;;;16.50;99.90;;;;;;5052076;28;20032;-82
2022/07/06 06:35:41;;;;;;;1999.90;999.90;;;16.60;99.90;;;;;;5022293;28;20484;-82
2022/07/06 06:38:07;;;;;;;1999.90;999.90;;;16.70;99.90;;;;;;5048927;28;20025;-83
2022/07/06 06:40:33;;;;;;;1999.90;999.90;;;16.80;99.90;;;;;;5052716;28;20076;-80
2022/07/06 06:42:58;;;;;;;1999.90;999.90;;;16.90;99.90;;;;;;5046576;28;20033;-81
2022/07/06 06:45:24;;;;;;;1999.90;999.90;;;17.00;99.90;;;;;;5058919;28;20380;-80
2022/07/06 06:47:50;;;;;;;1999.90;999.90;;;17.20;99.90;;;;;;5053267;28;20098;-82
2022/07/06 06:50:15;;;;;;;1999.90;999.90;;;17.30;99.90;;;;;;5072744;28;20034;-82
2022/07/06 06:52:41;;;;;;;1999.90;999.90;;;17.50;99.90;;;;;;5037991;28;20017;-83
2022/07/06 06:55:07;;;;;;;1999.90;999.90;;;17.50;99.90;;;;;;5037366;28;20120;-83
2022/07/06 06:57:33;;;;;;;1999.90;999.90;;;17.70;99.90;;;;;;5037056;28;20338;-85
2022/07/06 06:59:59;;;;;;;1999.90;999.90;;;17.80;99.90;;;;;;5052040;28;20029;-83
2022/07/06 07:02:24;;;;;;;1999.90;999.90;;;18.00;99.90;;;;;;5052408;28;20044;-84
2022/07/06 07:04:50;;;;;;;1999.90;999.90;;;18.00;99.90;;;;;;5034238;28;20040;-82
2022/07/06 07:07:16;;;;;;;1999.90;999.90;;;18.20;99.90;;;;;;5034293;28;20447;-85
2022/07/06 07:09:42;;;;;;;1999.90;999.90;;;18.40;99.90;;;;;;5024058;28;20376;-85
2022/07/06 07:12:08;;;;;;;1999.90;999.90;;;18.50;99.90;;;;;;5067912;28;20024;-87
2022/07/06 07:14:33;;;;;;;1999.90;999.90;;;18.60;99.90;;;;;;5048700;28;20104;-84
2022/07/06 07:16:59;;;;;;;1999.90;999.90;;;18.70;99.90;;;;;;5058015;28;20023;-86
2022/07/06 07:19:25;;;;;;;1999.90;999.90;;;18.80;99.90;;;;;;5028144;28;20033;-83
2022/07/06 07:21:50;;;;;;;1999.90;999.90;;;18.90;99.90;;;;;;5060523;28;20035;-81
2022/07/06 07:24:16;;;;;;;1999.90;999.90;;;19.00;99.90;;;;;;5053050;28;20807;-82
2022/07/06 07:26:42;;;;;;;1999.90;999.90;;;19.00;99.90;;;;;;5041198;28;20124;-81
2022/07/06 07:29:07;;;;;;;1999.90;999.90;;;19.10;99.90;;;;;;5032412;28;20032;-80
2022/07/06 07:31:33;;;;;;;1999.90;999.90;;;19.30;99.90;;;;;;5033804;28;20031;-83
2022/07/06 07:33:59;;;;;;;1999.90;999.90;;;19.50;99.90;;;;;;5052735;28;20036;-83
2022/07/06 07:36:25;;;;;;;1999.90;999.90;;;19.80;99.50;;;;;;5054121;28;20036;-80
2022/07/06 07:38:51;;;;;;;1999.90;999.90;;;21.20;97.80;;;;;;5052694;28;20052;-86
2022/07/06 07:41:17;;;;;;;1999.90;999.90;;;23.50;94.70;;;;;;5035155;28;20103;-82
2022/07/06 07:43:43;;;;;;;1999.90;999.90;;;25.00;92.50;;;;;;5039019;28;20025;-81
2022/07/06 07:46:09;;;;;;;1999.90;999.90;;;26.20;91.20;;;;;;5051460;28;20500;-81
2022/07/06 07:48:35;;;;;;;1999.90;999.90;;;26.70;90.10;;;;;;5032915;28;20025;-82
2022/07/06 07:51:00;;;;;;;1999.90;999.90;;;26.70;89.20;;;;;;5033974;28;20049;-81
2022/07/06 07:53:26;;;;;;;1999.90;999.90;;;27.10;89.50;;;;;;5050326;28;20057;-82
2022/07/06 07:55:52;;;;;;;1999.90;999.90;;;27.70;87.80;;;;;;5045086;28;20022;-82
2022/07/06 07:58:18;;;;;;;1999.90;999.90;;;27.80;87.00;;;;;;5047680;28;20480;-82
2022/07/06 08:00:44;;;;;;;1999.90;999.90;;;28.20;86.70;;;;;;5056698;28;20150;-81
2022/07/06 08:03:10;;;;;;;1999.90;999.90;;;28.40;85.00;;;;;;5038458;28;20072;-81
2022/07/06 08:05:35;;;;;;;1999.90;999.90;;;28.20;85.10;;;;;;5037866;28;20086;-80
2022/07/06 08:08:01;;;;;;;1999.90;999.90;;;28.70;85.20;;;;;;5052024;28;20105;-82
2022/07/06 08:10:27;;;;;;;1999.90;999.90;;;29.20;83.70;;;;;;5055720;28;20029;-81
2022/07/06 08:12:52;;;;;;;1999.90;999.90;;;29.90;83.50;;;;;;5033691;28;20025;-85
2022/07/06 08:15:18;;;;;;;1999.90;999.90;;;30.50;82.40;;;;;;5031486;28;20491;-86
2022/07/06 08:17:44;;;;;;;1999.90;999.90;;;30.50;81.20;;;;;;5055136;28;20369;-81
2022/07/06 08:20:11;;;;;;;1999.90;999.90;;;31.10;81.40;;;;;;5037627;28;20025;-80
2022/07/06 08:22:37;;;;;;;1999.90;999.90;;;31.10;80.40;;;;;;5029731;28;21280;-80
2022/07/06 08:25:03;;;;;;;1999.90;999.90;;;30.90;80.80;;;;;;5036049;28;20032;-81
2022/07/06 08:27:29;;;;;;;1999.90;999.90;;;31.20;80.50;;;;;;5054063;28;20028;-81
2022/07/06 08:29:55;;;;;;;1999.90;999.90;;;31.10;80.70;;;;;;5036124;28;20021;-81
2022/07/06 08:32:20;;;;;;;1999.90;999.90;;;31.50;79.90;;;;;;5040616;28;20029;-82
2022/07/06 08:34:47;;;;;;;1999.90;999.90;;;31.80;79.00;;;;;;5038031;28;20108;-81
2022/07/06 08:37:12;;;;;;;1999.90;999.90;;;32.20;79.80;;;;;;5036905;28;20059;-81
2022/07/06 08:39:38;;;;;;;1999.90;999.90;;;32.20;78.40;;;;;;5034667;28;20498;-80
2022/07/06 08:42:05;;;;;;;1999.90;999.90;;;32.40;78.70;;;;;;5049051;28;20392;-81
2022/07/06 08:44:30;;;;;;;1999.90;999.90;;;33.10;78.20;;;;;;5037267;28;20029;-80
2022/07/06 08:46:58;;;;;;;1999.90;999.90;;;32.60;78.00;;;;;;5037238;28;20035;-80
2022/07/06 08:49:26;;;;;;;1999.90;999.90;;;32.60;77.70;;;;;;5036479;28;20106;-81
2022/07/06 08:51:52;;;;;;;1999.90;999.90;;;32.90;77.70;;;;;;5039646;28;20082;-83
2022/07/06 08:54:20;;;;;;;1999.90;999.90;;;33.10;77.40;;;;;;5036291;28;20052;-81
2022/07/06 08:56:45;;;;;;;1999.90;999.90;;;33.50;76.90;;;;;;5054678;28;20024;-82
2022/07/06 08:59:11;;;;;;;1999.90;999.90;;;33.70;77.00;;;;;;5034601;28;20400;-81
2022/07/06 09:01:38;;;;;;;1999.90;999.90;;;34.00;76.50;;;;;;5055974;28;20500;-81
2022/07/06 09:04:08;;;;;;;1999.90;999.90;;;33.70;77.00;;;;;;5058838;28;20035;-81
2022/07/06 09:06:35;;;;;;;1999.90;999.90;;;33.60;76.30;;;;;;5031080;28;20060;-81
2022/07/06 09:09:05;;;;;;;1999.90;999.90;;;33.70;75.30;;;;;;5041028;28;20039;-81
2022/07/06 09:11:31;;;;;;;1999.90;999.90;;;33.60;76.10;;;;;;5061547;28;20067;-82
2022/07/06 09:13:57;;;;;;;1999.90;999.90;;;33.80;76.50;;;;;;5049599;28;20446;-81
2022/07/06 09:16:28;;;;;;;1999.90;999.90;;;33.40;76.20;;;;;;5030332;28;20079;-81
2022/07/06 09:18:54;;;;;;;1999.90;999.90;;;34.10;76.50;;;;;;5042711;28;20111;-82
2022/07/06 09:21:32;;;;;;;1999.90;999.90;;;34.10;75.90;;;;;;5036393;28;20457;-82
2022/07/06 09:24:02;;;;;;;1999.90;999.90;;;34.50;75.50;;;;;;5052696;28;20131;-82
2022/07/06 09:26:28;;;;;;;1999.90;999.90;;;34.70;75.20;;;;;;5033088;28;20033;-82
2022/07/06 09:28:56;;;;;;;1999.90;999.90;;;34.80;74.40;;;;;;5058872;28;20033;-82
2022/07/06 09:31:22;;;;;;;1999.90;999.90;;;35.20;74.70;;;;;;5059640;28;20024;-82
2022/07/06 09:33:59;;;;;;;1999.90;999.90;;;35.00;74.50;;;;;;5037812;28;20055;-83
2022/07/06 09:36:44;;;;;;;1999.90;999.90;;;34.90;74.30;;;;;;5058837;28;20028;-82
2022/07/06 09:39:24;;;;;;;1999.90;999.90;;;35.10;75.20;;;;;;5021381;28;20045;-82
2022/07/06 09:41:53;;;;;;;1999.90;999.90;;;35.30;75.10;;;;;;5038619;28;20028;-83
2022/07/06 09:44:22;;;;;;;1999.90;999.90;;;35.30;73.60;;;;;;5039528;28;20151;-83
2022/07/06 09:46:48;;;;;;;1999.90;999.90;;;35.20;74.00;;;;;;5055583;28;20491;-85
2022/07/06 09:49:18;;;;;;;1999.90;999.90;;;34.80;73.80;;;;;;5066381;28;20028;-86
2022/07/06 09:51:46;;;;;;;1999.90;999.90;;;35.40;74.30;;;;;;5048655;28;20024;-85
2022/07/06 09:54:12;;;;;;;1999.90;999.90;;;35.70;73.80;;;;;;5035184;28;20412;-86
2022/07/06 09:56:50;;;;;;;1999.90;999.90;;;35.50;74.00;;;;;;5039864;28;20017;-83
2022/07/06 09:59:23;;;;;;;1999.90;999.90;;;35.50;73.40;;;;;;5042526;28;20024;-85
2022/07/06 10:01:55;;;;;;;1999.90;999.90;;;35.70;73.20;;;;;;5050803;28;20091;-85
2022/07/06 10:04:22;;;;;;;1999.90;999.90;;;35.30;73.70;;;;;;5058707;28;20055;-85
2022/07/06 10:06:48;;;;;;;1999.90;999.90;;;35.70;73.50;;;;;;5038083;28;20448;-83
2022/07/06 10:09:14;;;;;;;1999.90;999.90;;;35.50;75.80;;;;;;5033484;28;20079;-84
2022/07/06 10:11:53;;;;;;;1999.90;999.90;;;35.40;75.20;;;;;;5053691;28;20032;-83
2022/07/06 10:14:27;;;;;;;1999.90;999.90;;;35.60;74.30;;;;;;5052339;28;20112;-86
2022/07/06 10:16:58;;;;;;;1999.90;999.90;;;35.50;72.40;;;;;;5050889;28;20013;-85
2022/07/06 10:19:25;;;;;;;1999.90;999.90;;;36.00;74.70;;;;;;5040830;28;20091;-84
2022/07/06 10:21:51;;;;;;;1999.90;999.90;;;36.30;72.00;;;;;;5068187;28;20048;-84
2022/07/06 10:24:19;;;;;;;1999.90;999.90;;;35.80;72.00;;;;;;5037799;28;20044;-85
2022/07/06 10:26:46;;;;;;;1999.90;999.90;;;35.60;72.60;;;;;;5046788;28;20025;-85
2022/07/06 10:29:12;;;;;;;1999.90;999.90;;;35.90;72.70;;;;;;5034389;28;20029;-85
2022/07/06 10:31:42;;;;;;;1999.90;999.90;;;35.70;72.20;;;;;;5031496;28;20095;-83
2022/07/06 10:34:12;;;;;;;1999.90;999.90;;;35.80;72.30;;;;;;5034063;28;20021;-84
2022/07/06 10:36:39;;;;;;;1999.90;999.90;;;35.70;72.10;;;;;;5046636;28;20025;-87
2022/07/06 10:42:00;;;;;;;1999.90;999.90;;;35.30;72.20;;;;;;4958196;28;20519;-85
2022/07/06 10:44:27;;;;;;;1999.90;999.90;;;35.50;72.70;;;;;;5033336;28;20040;-85
2022/07/06 10:46:57;;;;;;;1999.90;999.90;;;35.70;74.70;;;;;;5055925;28;20074;-85
2022/07/06 10:49:24;;;;;;;1999.90;999.90;;;36.00;72.00;;;;;;5035277;28;20048;-86
2022/07/06 10:51:51;;;;;;;1999.90;999.90;;;36.30;71.20;;;;;;5059240;28;20025;-83
2022/07/06 10:54:18;;;;;;;1999.90;999.90;;;36.00;71.40;;;;;;5034995;28;20029;-84
2022/07/06 10:56:46;;;;;;;1999.90;999.90;;;36.30;72.10;;;;;;5046053;28;20492;-83
2022/07/06 10:59:17;;;;;;;1999.90;999.90;;;36.30;70.90;;;;;;5056790;28;20050;-84
2022/07/06 11:02:15;;;;;;;1999.90;999.90;;;36.20;71.10;;;;;;5028573;28;20048;-83
2022/07/06 11:04:48;;;;;;;1999.90;999.90;;;36.10;71.50;;;;;;5071979;28;20028;-85
2022/07/06 11:07:16;;;;;;;1999.90;999.90;;;35.40;71.70;;;;;;5054004;28;20075;-87
2022/07/06 11:09:58;;;;;;;1999.90;999.90;;;35.60;72.40;;;;;;5049127;28;20032;-85
2022/07/06 11:12:24;;;;;;;1999.90;999.90;;;35.80;71.40;;;;;;5039026;28;20024;-87
2022/07/06 11:14:51;;;;;;;1999.90;999.90;;;35.90;71.80;;;;;;5033616;28;20040;-83
2022/07/06 11:17:18;;;;;;;1999.90;999.90;;;36.00;70.60;;;;;;5037469;28;20025;-83
2022/07/06 11:19:57;;;;;;;1999.90;999.90;;;35.80;70.70;;;;;;5033906;28;20093;-85
2022/07/06 11:22:26;;;;;;;1999.90;999.90;;;35.00;70.10;;;;;;5054739;28;20108;-82
2022/07/06 11:24:52;;;;;;;1999.90;999.90;;;34.70;71.10;;;;;;5056010;28;20423;-84
2022/07/06 11:27:18;;;;;;;1999.90;999.90;;;35.30;70.90;;;;;;5045142;28;20028;-82
2022/07/06 11:29:45;;;;;;;1999.90;999.90;;;35.60;71.10;;;;;;5033587;28;20053;-84
2022/07/06 11:32:13;;;;;;;1999.90;999.90;;;36.00;70.80;;;;;;5033922;28;20116;-84
2022/07/06 11:34:42;;;;;;;1999.90;999.90;;;36.40;69.40;;;;;;5033860;28;20033;-85
2022/07/06 11:37:10;;;;;;;1999.90;999.90;;;35.90;70.10;;;;;;5077506;28;20043;-85
2022/07/06 11:39:40;;;;;;;1999.90;999.90;;;35.60;71.00;;;;;;5059749;28;20009;-84
2022/07/06 11:42:06;;;;;;;1999.90;999.90;;;35.60;68.60;;;;;;5064361;28;20036;-84
2022/07/06 11:44:33;;;;;;;1999.90;999.90;;;35.50;68.50;;;;;;5058672;28;20079;-85
2022/07/06 11:47:02;;;;;;;1999.90;999.90;;;35.20;70.30;;;;;;5036982;28;20116;-84
2022/07/06 11:49:28;;;;;;;1999.90;999.90;;;35.00;72.50;;;;;;5054051;28;20041;-84
2022/07/06 11:51:54;;;;;;;1999.90;999.90;;;35.40;70.40;;;;;;5039312;28;20029;-83
2022/07/06 11:54:22;;;;;;;1999.90;999.90;;;35.40;70.40;;;;;;5059402;28;20078;-81
2022/07/06 11:56:58;;;;;;;1999.90;999.90;;;35.10;69.50;;;;;;5040133;28;20411;-84
2022/07/06 11:59:32;;;;;;;1999.90;999.90;;;34.50;70.50;;;;;;5051098;28;20104;-82
2022/07/06 12:02:03;;;;;;;1999.90;999.90;;;34.50;70.50;;;;;;5040745;28;20072;-83